sensor_id;sensor_type;location;lat;lon;timestamp;P1;durP1;ratioP1;P2;durP2;ratioP2
71973;SDS011;59840;52.122;5.404;2023-01-24T00:00:41;11.93;;;6.10;;
71973;SDS011;59840;52.122;5.404;2023-01-24T00:03:08;8.80;;;5.50;;
71973;SDS011;59840;52.122;5.404;2023-01-24T00:05:42;8.20;;;5.00;;
71973;SDS011;59840;52.122;5.404;2023-01-24T00:08:11;8.43;;;5.23;;
71973;SDS011;59840;52.122;5.404;2023-01-24T00:10:39;10.52;;;5.60;;
71973;SDS011;59840;52.122;5.404;2023-01-24T00:13:07;10.45;;;5.75;;
71973;SDS011;59840;52.122;5.404;2023-01-24T00:15:36;7.47;;;5.03;;
71973;SDS011;59840;52.122;5.404;2023-01-24T00:18:03;9.45;;;5.10;;
71973;SDS011;59840;52.122;5.404;2023-01-24T00:20:30;11.50;;;5.83;;
71973;SDS011;59840;52.122;5.404;2023-01-24T00:22:56;9.30;;;5.57;;
71973;SDS011;59840;52.122;5.404;2023-01-24T00:25:23;11.35;;;6.10;;
71973;SDS011;59840;52.122;5.404;2023-01-24T00:27:49;11.50;;;5.93;;
71973;SDS011;59840;52.122;5.404;2023-01-24T00:30:16;10.20;;;5.22;;
71973;SDS011;59840;52.122;5.404;2023-01-24T00:32:42;9.70;;;5.80;;
71973;SDS011;59840;52.122;5.404;2023-01-24T00:35:09;10.27;;;5.47;;
71973;SDS011;59840;52.122;5.404;2023-01-24T00:37:35;10.98;;;6.03;;
71973;SDS011;59840;52.122;5.404;2023-01-24T00:40:02;12.18;;;6.88;;
71973;SDS011;59840;52.122;5.404;2023-01-24T00:42:29;9.45;;;5.70;;
71973;SDS011;59840;52.122;5.404;2023-01-24T00:44:55;10.10;;;5.53;;
71973;SDS011;59840;52.122;5.404;2023-01-24T00:47:22;9.98;;;5.90;;
71973;SDS011;59840;52.122;5.404;2023-01-24T00:49:50;10.45;;;6.15;;
71973;SDS011;59840;52.122;5.404;2023-01-24T00:52:17;10.35;;;6.13;;
71973;SDS011;59840;52.122;5.404;2023-01-24T00:54:43;10.38;;;6.00;;
71973;SDS011;59840;52.122;5.404;2023-01-24T00:57:10;13.43;;;6.60;;
71973;SDS011;59840;52.122;5.404;2023-01-24T00:59:37;14.02;;;6.95;;
71973;SDS011;59840;52.122;5.404;2023-01-24T01:02:04;10.23;;;5.78;;
71973;SDS011;59840;52.122;5.404;2023-01-24T01:04:30;10.88;;;6.18;;
71973;SDS011;59840;52.122;5.404;2023-01-24T01:06:57;11.43;;;5.97;;
71973;SDS011;59840;52.122;5.404;2023-01-24T01:09:23;11.77;;;6.27;;
71973;SDS011;59840;52.122;5.404;2023-01-24T01:11:50;10.20;;;5.65;;
71973;SDS011;59840;52.122;5.404;2023-01-24T01:14:16;10.05;;;5.57;;
71973;SDS011;59840;52.122;5.404;2023-01-24T01:16:43;11.50;;;5.80;;
71973;SDS011;59840;52.122;5.404;2023-01-24T01:19:10;11.50;;;6.03;;
71973;SDS011;59840;52.122;5.404;2023-01-24T01:21:36;11.00;;;6.23;;
71973;SDS011;59840;52.122;5.404;2023-01-24T01:24:03;12.40;;;6.45;;
71973;SDS011;59840;52.122;5.404;2023-01-24T01:26:29;11.63;;;6.35;;
71973;SDS011;59840;52.122;5.404;2023-01-24T01:28:57;10.95;;;5.82;;
71973;SDS011;59840;52.122;5.404;2023-01-24T01:31:24;9.05;;;4.93;;
71973;SDS011;59840;52.122;5.404;2023-01-24T01:33:51;11.13;;;6.07;;
71973;SDS011;59840;52.122;5.404;2023-01-24T01:36:17;11.13;;;6.60;;
71973;SDS011;59840;52.122;5.404;2023-01-24T01:38:44;12.77;;;6.20;;
71973;SDS011;59840;52.122;5.404;2023-01-24T01:41:12;11.23;;;6.22;;
71973;SDS011;59840;52.122;5.404;2023-01-24T01:43:39;12.00;;;5.38;;
71973;SDS011;59840;52.122;5.404;2023-01-24T01:46:26;10.40;;;4.93;;
71973;SDS011;59840;52.122;5.404;2023-01-24T01:48:57;11.52;;;5.38;;
71973;SDS011;59840;52.122;5.404;2023-01-24T01:51:30;9.20;;;5.15;;
71973;SDS011;59840;52.122;5.404;2023-01-24T01:54:04;8.82;;;4.95;;
71973;SDS011;59840;52.122;5.404;2023-01-24T01:56:39;8.88;;;5.60;;
71973;SDS011;59840;52.122;5.404;2023-01-24T01:59:10;9.03;;;4.83;;
71973;SDS011;59840;52.122;5.404;2023-01-24T02:01:42;10.20;;;4.97;;
71973;SDS011;59840;52.122;5.404;2023-01-24T02:04:13;8.68;;;5.38;;
71973;SDS011;59840;52.122;5.404;2023-01-24T02:06:55;11.82;;;5.43;;
71973;SDS011;59840;52.122;5.404;2023-01-24T02:09:28;9.57;;;5.60;;
71973;SDS011;59840;52.122;5.404;2023-01-24T02:12:04;10.80;;;5.60;;
71973;SDS011;59840;52.122;5.404;2023-01-24T02:14:36;9.43;;;5.38;;
71973;SDS011;59840;52.122;5.404;2023-01-24T02:17:22;9.23;;;4.65;;
71973;SDS011;59840;52.122;5.404;2023-01-24T02:23:21;8.18;;;4.90;;
71973;SDS011;59840;52.122;5.404;2023-01-24T02:25:39;9.80;;;5.20;;
71973;SDS011;59840;52.122;5.404;2023-01-24T02:28:11;11.32;;;5.50;;
71973;SDS011;59840;52.122;5.404;2023-01-24T02:30:38;7.82;;;4.47;;
71973;SDS011;59840;52.122;5.404;2023-01-24T02:33:12;10.30;;;5.13;;
71973;SDS011;59840;52.122;5.404;2023-01-24T02:35:41;10.35;;;5.25;;
71973;SDS011;59840;52.122;5.404;2023-01-24T02:38:27;8.63;;;5.43;;
71973;SDS011;59840;52.122;5.404;2023-01-24T02:40:56;10.43;;;5.72;;
71973;SDS011;59840;52.122;5.404;2023-01-24T02:43:34;7.85;;;5.20;;
71973;SDS011;59840;52.122;5.404;2023-01-24T02:46:05;10.88;;;5.63;;
71973;SDS011;59840;52.122;5.404;2023-01-24T02:48:31;11.05;;;5.93;;
71973;SDS011;59840;52.122;5.404;2023-01-24T02:50:58;10.60;;;6.13;;
71973;SDS011;59840;52.122;5.404;2023-01-24T02:53:43;10.48;;;5.63;;
71973;SDS011;59840;52.122;5.404;2023-01-24T02:56:10;10.75;;;5.40;;
71973;SDS011;59840;52.122;5.404;2023-01-24T02:58:55;11.98;;;6.15;;
71973;SDS011;59840;52.122;5.404;2023-01-24T03:01:22;11.52;;;6.25;;
71973;SDS011;59840;52.122;5.404;2023-01-24T03:03:49;13.03;;;6.30;;
71973;SDS011;59840;52.122;5.404;2023-01-24T03:06:17;11.15;;;6.15;;
71973;SDS011;59840;52.122;5.404;2023-01-24T03:08:44;10.77;;;5.82;;
71973;SDS011;59840;52.122;5.404;2023-01-24T03:11:11;10.88;;;4.70;;
71973;SDS011;59840;52.122;5.404;2023-01-24T03:13:38;11.27;;;6.18;;
71973;SDS011;59840;52.122;5.404;2023-01-24T03:16:23;11.93;;;6.40;;
71973;SDS011;59840;52.122;5.404;2023-01-24T03:19:09;12.75;;;5.88;;
71973;SDS011;59840;52.122;5.404;2023-01-24T03:21:54;14.70;;;6.55;;
71973;SDS011;59840;52.122;5.404;2023-01-24T03:24:39;9.95;;;4.65;;
71973;SDS011;59840;52.122;5.404;2023-01-24T03:27:24;11.70;;;4.82;;
71973;SDS011;59840;52.122;5.404;2023-01-24T03:30:10;11.20;;;5.97;;
71973;SDS011;59840;52.122;5.404;2023-01-24T03:32:59;10.93;;;5.47;;
71973;SDS011;59840;52.122;5.404;2023-01-24T03:35:47;10.57;;;5.22;;
71973;SDS011;59840;52.122;5.404;2023-01-24T03:38:20;12.38;;;5.30;;
71973;SDS011;59840;52.122;5.404;2023-01-24T03:41:06;9.52;;;5.18;;
71973;SDS011;59840;52.122;5.404;2023-01-24T03:43:33;11.00;;;5.30;;
71973;SDS011;59840;52.122;5.404;2023-01-24T03:46:00;9.20;;;5.00;;
71973;SDS011;59840;52.122;5.404;2023-01-24T03:48:27;9.95;;;4.88;;
71973;SDS011;59840;52.122;5.404;2023-01-24T03:51:00;9.60;;;5.40;;
71973;SDS011;59840;52.122;5.404;2023-01-24T03:53:45;9.13;;;4.88;;
71973;SDS011;59840;52.122;5.404;2023-01-24T03:56:12;11.73;;;5.80;;
71973;SDS011;59840;52.122;5.404;2023-01-24T03:58:39;9.35;;;5.47;;
71973;SDS011;59840;52.122;5.404;2023-01-24T04:01:06;8.13;;;5.10;;
71973;SDS011;59840;52.122;5.404;2023-01-24T04:03:32;9.82;;;5.50;;
71973;SDS011;59840;52.122;5.404;2023-01-24T04:05:59;12.20;;;6.60;;
71973;SDS011;59840;52.122;5.404;2023-01-24T04:08:26;9.43;;;5.93;;
71973;SDS011;59840;52.122;5.404;2023-01-24T04:10:54;12.73;;;5.97;;
71973;SDS011;59840;52.122;5.404;2023-01-24T04:13:21;11.57;;;5.25;;
71973;SDS011;59840;52.122;5.404;2023-01-24T04:15:48;10.52;;;6.13;;
71973;SDS011;59840;52.122;5.404;2023-01-24T04:18:14;11.98;;;6.25;;
71973;SDS011;59840;52.122;5.404;2023-01-24T04:20:41;11.47;;;5.93;;
71973;SDS011;59840;52.122;5.404;2023-01-24T04:23:08;13.45;;;6.93;;
71973;SDS011;59840;52.122;5.404;2023-01-24T04:25:36;12.93;;;6.70;;
71973;SDS011;59840;52.122;5.404;2023-01-24T04:28:02;10.90;;;6.05;;
71973;SDS011;59840;52.122;5.404;2023-01-24T04:30:29;10.15;;;6.10;;
71973;SDS011;59840;52.122;5.404;2023-01-24T04:32:55;11.63;;;6.73;;
71973;SDS011;59840;52.122;5.404;2023-01-24T04:35:23;11.38;;;6.38;;
71973;SDS011;59840;52.122;5.404;2023-01-24T04:37:51;11.27;;;6.18;;
71973;SDS011;59840;52.122;5.404;2023-01-24T04:40:18;13.60;;;6.68;;
71973;SDS011;59840;52.122;5.404;2023-01-24T04:42:44;12.63;;;6.80;;
71973;SDS011;59840;52.122;5.404;2023-01-24T04:45:11;12.47;;;6.80;;
71973;SDS011;59840;52.122;5.404;2023-01-24T04:47:38;13.07;;;6.78;;
71973;SDS011;59840;52.122;5.404;2023-01-24T04:50:04;11.90;;;6.55;;
71973;SDS011;59840;52.122;5.404;2023-01-24T04:52:31;12.18;;;6.35;;
71973;SDS011;59840;52.122;5.404;2023-01-24T04:54:58;10.13;;;6.05;;
71973;SDS011;59840;52.122;5.404;2023-01-24T04:57:25;12.47;;;6.27;;
71973;SDS011;59840;52.122;5.404;2023-01-24T04:59:52;12.15;;;6.50;;
71973;SDS011;59840;52.122;5.404;2023-01-24T05:02:18;12.82;;;6.60;;
71973;SDS011;59840;52.122;5.404;2023-01-24T05:04:45;13.15;;;6.32;;
71973;SDS011;59840;52.122;5.404;2023-01-24T05:07:12;13.38;;;7.30;;
71973;SDS011;59840;52.122;5.404;2023-01-24T05:09:38;12.17;;;6.30;;
71973;SDS011;59840;52.122;5.404;2023-01-24T05:12:05;14.68;;;7.28;;
71973;SDS011;59840;52.122;5.404;2023-01-24T05:14:32;13.32;;;6.30;;
71973;SDS011;59840;52.122;5.404;2023-01-24T05:16:58;13.60;;;6.40;;
71973;SDS011;59840;52.122;5.404;2023-01-24T05:19:25;14.77;;;6.70;;
71973;SDS011;59840;52.122;5.404;2023-01-24T05:21:54;11.67;;;6.03;;
71973;SDS011;59840;52.122;5.404;2023-01-24T05:24:20;14.63;;;7.28;;
71973;SDS011;59840;52.122;5.404;2023-01-24T05:26:47;13.18;;;6.63;;
71973;SDS011;59840;52.122;5.404;2023-01-24T05:29:13;13.95;;;6.88;;
71973;SDS011;59840;52.122;5.404;2023-01-24T05:31:40;16.70;;;7.65;;
71973;SDS011;59840;52.122;5.404;2023-01-24T05:34:06;13.73;;;6.67;;
71973;SDS011;59840;52.122;5.404;2023-01-24T05:36:33;14.60;;;7.40;;
71973;SDS011;59840;52.122;5.404;2023-01-24T05:39:00;13.63;;;7.10;;
71973;SDS011;59840;52.122;5.404;2023-01-24T05:41:27;14.80;;;7.78;;
71973;SDS011;59840;52.122;5.404;2023-01-24T05:43:53;16.10;;;8.10;;
71973;SDS011;59840;52.122;5.404;2023-01-24T05:46:21;16.77;;;8.40;;
71973;SDS011;59840;52.122;5.404;2023-01-24T05:48:48;16.05;;;7.97;;
71973;SDS011;59840;52.122;5.404;2023-01-24T05:51:16;15.85;;;8.07;;
71973;SDS011;59840;52.122;5.404;2023-01-24T05:53:45;13.18;;;6.78;;
71973;SDS011;59840;52.122;5.404;2023-01-24T05:56:13;17.52;;;8.45;;
71973;SDS011;59840;52.122;5.404;2023-01-24T05:58:44;12.63;;;6.27;;
71973;SDS011;59840;52.122;5.404;2023-01-24T06:01:13;15.77;;;7.38;;
71973;SDS011;59840;52.122;5.404;2023-01-24T06:03:43;14.30;;;6.70;;
71973;SDS011;59840;52.122;5.404;2023-01-24T06:06:11;12.80;;;5.60;;
71973;SDS011;59840;52.122;5.404;2023-01-24T06:08:39;14.15;;;6.65;;
71973;SDS011;59840;52.122;5.404;2023-01-24T06:11:11;15.33;;;7.13;;
71973;SDS011;59840;52.122;5.404;2023-01-24T06:13:40;15.02;;;6.60;;
71973;SDS011;59840;52.122;5.404;2023-01-24T06:16:09;12.25;;;5.15;;
71973;SDS011;59840;52.122;5.404;2023-01-24T06:18:38;14.05;;;7.13;;
71973;SDS011;59840;52.122;5.404;2023-01-24T06:21:06;14.20;;;5.72;;
71973;SDS011;59840;52.122;5.404;2023-01-24T06:23:52;13.30;;;6.63;;
71973;SDS011;59840;52.122;5.404;2023-01-24T06:26:19;14.85;;;7.50;;
71973;SDS011;59840;52.122;5.404;2023-01-24T06:28:46;16.45;;;8.35;;
71973;SDS011;59840;52.122;5.404;2023-01-24T06:39:50;16.20;;;7.47;;
71973;SDS011;59840;52.122;5.404;2023-01-24T06:42:19;15.45;;;7.60;;
71973;SDS011;59840;52.122;5.404;2023-01-24T06:44:47;14.77;;;7.65;;
71973;SDS011;59840;52.122;5.404;2023-01-24T06:47:14;16.50;;;7.88;;
71973;SDS011;59840;52.122;5.404;2023-01-24T06:49:41;17.40;;;7.67;;
71973;SDS011;59840;52.122;5.404;2023-01-24T06:52:08;16.73;;;8.00;;
71973;SDS011;59840;52.122;5.404;2023-01-24T06:54:35;18.13;;;8.15;;
71973;SDS011;59840;52.122;5.404;2023-01-24T06:57:02;14.10;;;7.32;;
71973;SDS011;59840;52.122;5.404;2023-01-24T06:59:29;18.00;;;8.18;;
71973;SDS011;59840;52.122;5.404;2023-01-24T07:01:56;16.93;;;7.40;;
71973;SDS011;59840;52.122;5.404;2023-01-24T07:04:22;17.73;;;7.63;;
71973;SDS011;59840;52.122;5.404;2023-01-24T07:06:49;17.83;;;8.15;;
71973;SDS011;59840;52.122;5.404;2023-01-24T07:09:19;15.32;;;7.80;;
71973;SDS011;59840;52.122;5.404;2023-01-24T07:11:46;17.77;;;8.55;;
71973;SDS011;59840;52.122;5.404;2023-01-24T07:14:19;18.17;;;8.53;;
71973;SDS011;59840;52.122;5.404;2023-01-24T07:16:46;15.52;;;7.28;;
71973;SDS011;59840;52.122;5.404;2023-01-24T07:19:14;12.52;;;6.20;;
71973;SDS011;59840;52.122;5.404;2023-01-24T07:21:43;17.17;;;7.68;;
71973;SDS011;59840;52.122;5.404;2023-01-24T07:24:17;15.43;;;7.78;;
71973;SDS011;59840;52.122;5.404;2023-01-24T07:26:46;17.63;;;7.63;;
71973;SDS011;59840;52.122;5.404;2023-01-24T07:29:14;19.77;;;8.55;;
71973;SDS011;59840;52.122;5.404;2023-01-24T07:31:41;16.08;;;7.95;;
71973;SDS011;59840;52.122;5.404;2023-01-24T07:34:07;14.68;;;7.63;;
71973;SDS011;59840;52.122;5.404;2023-01-24T07:36:34;15.73;;;7.63;;
71973;SDS011;59840;52.122;5.404;2023-01-24T07:39:00;15.50;;;8.13;;
71973;SDS011;59840;52.122;5.404;2023-01-24T07:41:27;14.23;;;7.68;;
71973;SDS011;59840;52.122;5.404;2023-01-24T07:43:54;11.43;;;6.47;;
71973;SDS011;59840;52.122;5.404;2023-01-24T07:46:21;17.40;;;7.93;;
71973;SDS011;59840;52.122;5.404;2023-01-24T07:48:48;16.17;;;8.10;;
71973;SDS011;59840;52.122;5.404;2023-01-24T07:51:14;13.43;;;5.97;;
71973;SDS011;59840;52.122;5.404;2023-01-24T07:53:41;15.20;;;7.38;;
71973;SDS011;59840;52.122;5.404;2023-01-24T07:56:07;19.70;;;7.50;;
71973;SDS011;59840;52.122;5.404;2023-01-24T07:58:46;18.15;;;7.97;;
71973;SDS011;59840;52.122;5.404;2023-01-24T08:01:16;12.82;;;6.55;;
71973;SDS011;59840;52.122;5.404;2023-01-24T08:03:44;18.00;;;8.27;;
71973;SDS011;59840;52.122;5.404;2023-01-24T08:06:11;17.90;;;7.90;;
71973;SDS011;59840;52.122;5.404;2023-01-24T08:08:38;16.58;;;7.88;;
71973;SDS011;59840;52.122;5.404;2023-01-24T08:11:04;16.35;;;7.25;;
71973;SDS011;59840;52.122;5.404;2023-01-24T08:13:31;15.80;;;7.53;;
71973;SDS011;59840;52.122;5.404;2023-01-24T08:15:59;13.40;;;7.60;;
71973;SDS011;59840;52.122;5.404;2023-01-24T08:18:26;14.68;;;7.45;;
71973;SDS011;59840;52.122;5.404;2023-01-24T08:20:54;14.00;;;7.60;;
71973;SDS011;59840;52.122;5.404;2023-01-24T08:23:23;16.20;;;7.75;;
71973;SDS011;59840;52.122;5.404;2023-01-24T08:25:50;14.27;;;6.95;;
71973;SDS011;59840;52.122;5.404;2023-01-24T08:28:17;14.13;;;6.80;;
71973;SDS011;59840;52.122;5.404;2023-01-24T08:30:44;13.55;;;6.95;;
71973;SDS011;59840;52.122;5.404;2023-01-24T08:33:10;15.98;;;7.03;;
71973;SDS011;59840;52.122;5.404;2023-01-24T08:35:43;14.35;;;6.80;;
71973;SDS011;59840;52.122;5.404;2023-01-24T08:38:11;13.27;;;6.90;;
71973;SDS011;59840;52.122;5.404;2023-01-24T08:40:38;11.67;;;6.43;;
71973;SDS011;59840;52.122;5.404;2023-01-24T08:43:15;15.40;;;7.13;;
71973;SDS011;59840;52.122;5.404;2023-01-24T08:45:41;16.25;;;7.32;;
71973;SDS011;59840;52.122;5.404;2023-01-24T08:48:08;13.57;;;6.57;;
71973;SDS011;59840;52.122;5.404;2023-01-24T08:50:34;16.42;;;7.47;;
71973;SDS011;59840;52.122;5.404;2023-01-24T08:53:01;13.33;;;6.60;;
71973;SDS011;59840;52.122;5.404;2023-01-24T08:55:28;10.90;;;5.82;;
71973;SDS011;59840;52.122;5.404;2023-01-24T08:58:01;14.52;;;6.90;;
71973;SDS011;59840;52.122;5.404;2023-01-24T09:00:30;16.02;;;6.95;;
71973;SDS011;59840;52.122;5.404;2023-01-24T09:02:56;12.45;;;7.03;;
71973;SDS011;59840;52.122;5.404;2023-01-24T09:05:27;12.83;;;6.20;;
71973;SDS011;59840;52.122;5.404;2023-01-24T09:07:55;15.13;;;7.70;;
71973;SDS011;59840;52.122;5.404;2023-01-24T09:10:22;11.40;;;5.47;;
71973;SDS011;59840;52.122;5.404;2023-01-24T09:12:48;12.25;;;6.88;;
71973;SDS011;59840;52.122;5.404;2023-01-24T09:15:15;14.75;;;6.07;;
71973;SDS011;59840;52.122;5.404;2023-01-24T09:17:42;16.47;;;7.13;;
71973;SDS011;59840;52.122;5.404;2023-01-24T09:20:08;13.98;;;6.32;;
71973;SDS011;59840;52.122;5.404;2023-01-24T09:22:35;14.77;;;7.20;;
71973;SDS011;59840;52.122;5.404;2023-01-24T09:25:02;13.38;;;6.82;;
71973;SDS011;59840;52.122;5.404;2023-01-24T09:27:30;11.05;;;6.15;;
71973;SDS011;59840;52.122;5.404;2023-01-24T09:29:56;12.93;;;7.07;;
71973;SDS011;59840;52.122;5.404;2023-01-24T09:32:22;11.27;;;5.10;;
71973;SDS011;59840;52.122;5.404;2023-01-24T09:34:49;12.00;;;6.00;;
71973;SDS011;59840;52.122;5.404;2023-01-24T09:37:19;14.27;;;6.80;;
71973;SDS011;59840;52.122;5.404;2023-01-24T09:39:47;14.38;;;6.38;;
71973;SDS011;59840;52.122;5.404;2023-01-24T09:45:08;13.68;;;6.65;;
71973;SDS011;59840;52.122;5.404;2023-01-24T09:47:45;13.25;;;7.15;;
71973;SDS011;59840;52.122;5.404;2023-01-24T09:53:04;15.20;;;7.22;;
71973;SDS011;59840;52.122;5.404;2023-01-24T09:55:34;15.17;;;7.00;;
71973;SDS011;59840;52.122;5.404;2023-01-24T09:58:27;14.02;;;6.95;;
71973;SDS011;59840;52.122;5.404;2023-01-24T10:01:12;14.05;;;6.85;;
71973;SDS011;59840;52.122;5.404;2023-01-24T10:03:41;12.40;;;6.10;;
71973;SDS011;59840;52.122;5.404;2023-01-24T10:06:13;14.70;;;6.25;;
71973;SDS011;59840;52.122;5.404;2023-01-24T10:25:45;11.98;;;5.85;;
71973;SDS011;59840;52.122;5.404;2023-01-24T10:33:56;10.38;;;5.72;;
71973;SDS011;59840;52.122;5.404;2023-01-24T10:36:35;12.53;;;6.00;;
71973;SDS011;59840;52.122;5.404;2023-01-24T10:39:26;11.25;;;5.90;;
71973;SDS011;59840;52.122;5.404;2023-01-24T10:41:53;12.68;;;6.15;;
71973;SDS011;59840;52.122;5.404;2023-01-24T10:44:27;15.07;;;6.18;;
71973;SDS011;59840;52.122;5.404;2023-01-24T10:49:26;14.37;;;6.03;;
71973;SDS011;59840;52.122;5.404;2023-01-24T10:52:12;11.75;;;6.25;;
71973;SDS011;59840;52.122;5.404;2023-01-24T10:54:52;13.77;;;6.47;;
71973;SDS011;59840;52.122;5.404;2023-01-24T10:57:36;11.73;;;5.68;;
71973;SDS011;59840;52.122;5.404;2023-01-24T11:00:55;11.82;;;6.03;;
71973;SDS011;59840;52.122;5.404;2023-01-24T11:03:01;10.47;;;5.23;;
71973;SDS011;59840;52.122;5.404;2023-01-24T11:05:46;11.38;;;5.40;;
71973;SDS011;59840;52.122;5.404;2023-01-24T11:08:20;10.77;;;5.35;;
71973;SDS011;59840;52.122;5.404;2023-01-24T11:10:52;8.48;;;4.82;;
71973;SDS011;59840;52.122;5.404;2023-01-24T11:13:24;11.13;;;5.38;;
71973;SDS011;59840;52.122;5.404;2023-01-24T11:16:41;10.70;;;5.40;;
71973;SDS011;59840;52.122;5.404;2023-01-24T11:18:54;10.68;;;5.32;;
71973;SDS011;59840;52.122;5.404;2023-01-24T11:21:24;11.00;;;5.93;;
71973;SDS011;59840;52.122;5.404;2023-01-24T11:24:07;10.60;;;5.43;;
71973;SDS011;59840;52.122;5.404;2023-01-24T11:29:41;9.60;;;4.73;;
71973;SDS011;59840;52.122;5.404;2023-01-24T11:32:17;14.25;;;5.55;;
71973;SDS011;59840;52.122;5.404;2023-01-24T11:35:18;13.23;;;6.25;;
71973;SDS011;59840;52.122;5.404;2023-01-24T11:43:08;10.73;;;5.60;;
71973;SDS011;59840;52.122;5.404;2023-01-24T11:45:57;11.73;;;5.97;;
71973;SDS011;59840;52.122;5.404;2023-01-24T12:08:21;11.45;;;6.25;;
71973;SDS011;59840;52.122;5.404;2023-01-24T12:13:56;13.07;;;6.10;;
71973;SDS011;59840;52.122;5.404;2023-01-24T12:26:02;11.50;;;5.83;;
71973;SDS011;59840;52.122;5.404;2023-01-24T12:31:42;12.55;;;6.65;;
71973;SDS011;59840;52.122;5.404;2023-01-24T12:39:54;12.57;;;6.03;;
71973;SDS011;59840;52.122;5.404;2023-01-24T12:45:26;13.23;;;6.60;;
71973;SDS011;59840;52.122;5.404;2023-01-24T12:48:12;12.32;;;6.55;;
71973;SDS011;59840;52.122;5.404;2023-01-24T12:50:56;14.48;;;7.13;;
71973;SDS011;59840;52.122;5.404;2023-01-24T12:53:31;11.40;;;6.30;;
71973;SDS011;59840;52.122;5.404;2023-01-24T12:56:11;12.98;;;7.18;;
71973;SDS011;59840;52.122;5.404;2023-01-24T12:58:44;12.48;;;6.63;;
71973;SDS011;59840;52.122;5.404;2023-01-24T13:03:53;19.60;;;6.75;;
71973;SDS011;59840;52.122;5.404;2023-01-24T13:11:37;13.52;;;6.80;;
71973;SDS011;59840;52.122;5.404;2023-01-24T13:14:19;17.17;;;6.07;;
71973;SDS011;59840;52.122;5.404;2023-01-24T13:16:55;13.20;;;7.00;;
71973;SDS011;59840;52.122;5.404;2023-01-24T13:19:34;14.17;;;7.43;;
71973;SDS011;59840;52.122;5.404;2023-01-24T13:22:14;11.30;;;7.00;;
71973;SDS011;59840;52.122;5.404;2023-01-24T13:31:10;12.07;;;7.10;;
71973;SDS011;59840;52.122;5.404;2023-01-24T13:33:35;12.77;;;6.50;;
71973;SDS011;59840;52.122;5.404;2023-01-24T13:36:07;12.95;;;6.15;;
71973;SDS011;59840;52.122;5.404;2023-01-24T13:38:38;12.57;;;7.00;;
71973;SDS011;59840;52.122;5.404;2023-01-24T13:41:13;11.30;;;5.90;;
71973;SDS011;59840;52.122;5.404;2023-01-24T13:43:50;13.43;;;7.07;;
71973;SDS011;59840;52.122;5.404;2023-01-24T13:49:17;15.30;;;8.00;;
71973;SDS011;59840;52.122;5.404;2023-01-24T13:51:58;14.38;;;7.35;;
71973;SDS011;59840;52.122;5.404;2023-01-24T13:59:32;12.23;;;7.43;;
71973;SDS011;59840;52.122;5.404;2023-01-24T14:04:49;14.10;;;7.65;;
71973;SDS011;59840;52.122;5.404;2023-01-24T14:07:16;14.32;;;7.80;;
71973;SDS011;59840;52.122;5.404;2023-01-24T14:09:45;12.02;;;6.95;;
71973;SDS011;59840;52.122;5.404;2023-01-24T14:12:14;11.33;;;6.50;;
71973;SDS011;59840;52.122;5.404;2023-01-24T14:20:16;13.82;;;7.45;;
71973;SDS011;59840;52.122;5.404;2023-01-24T14:22:49;14.93;;;7.05;;
71973;SDS011;59840;52.122;5.404;2023-01-24T14:28:11;13.82;;;6.43;;
71973;SDS011;59840;52.122;5.404;2023-01-24T14:30:46;13.88;;;7.00;;
71973;SDS011;59840;52.122;5.404;2023-01-24T14:35:57;12.75;;;7.40;;
71973;SDS011;59840;52.122;5.404;2023-01-24T14:38:27;14.17;;;7.40;;
71973;SDS011;59840;52.122;5.404;2023-01-24T14:40:54;14.40;;;7.38;;
71973;SDS011;59840;52.122;5.404;2023-01-24T14:43:23;12.77;;;7.15;;
71973;SDS011;59840;52.122;5.404;2023-01-24T14:45:56;12.98;;;7.03;;
71973;SDS011;59840;52.122;5.404;2023-01-24T14:48:23;15.25;;;7.28;;
71973;SDS011;59840;52.122;5.404;2023-01-24T14:50:58;12.97;;;7.40;;
71973;SDS011;59840;52.122;5.404;2023-01-24T14:53:30;14.75;;;7.18;;
71973;SDS011;59840;52.122;5.404;2023-01-24T14:56:16;15.52;;;7.50;;
71973;SDS011;59840;52.122;5.404;2023-01-24T14:58:43;11.02;;;6.68;;
71973;SDS011;59840;52.122;5.404;2023-01-24T15:03:52;13.17;;;7.33;;
71973;SDS011;59840;52.122;5.404;2023-01-24T15:06:21;14.07;;;7.57;;
71973;SDS011;59840;52.122;5.404;2023-01-24T15:08:52;15.45;;;7.68;;
71973;SDS011;59840;52.122;5.404;2023-01-24T15:14:05;10.75;;;6.50;;
71973;SDS011;59840;52.122;5.404;2023-01-24T15:16:47;14.27;;;7.47;;
71973;SDS011;59840;52.122;5.404;2023-01-24T15:19:20;11.40;;;6.70;;
71973;SDS011;59840;52.122;5.404;2023-01-24T15:21:50;11.45;;;7.32;;
71973;SDS011;59840;52.122;5.404;2023-01-24T15:24:20;10.30;;;6.85;;
71973;SDS011;59840;52.122;5.404;2023-01-24T15:26:50;16.05;;;7.50;;
71973;SDS011;59840;52.122;5.404;2023-01-24T15:32:16;16.80;;;7.97;;
71973;SDS011;59840;52.122;5.404;2023-01-24T15:34:48;11.75;;;6.65;;
71973;SDS011;59840;52.122;5.404;2023-01-24T15:37:15;13.52;;;7.47;;
71973;SDS011;59840;52.122;5.404;2023-01-24T15:39:42;12.30;;;7.07;;
71973;SDS011;59840;52.122;5.404;2023-01-24T15:42:15;12.47;;;6.77;;
71973;SDS011;59840;52.122;5.404;2023-01-24T15:45:03;13.27;;;7.55;;
71973;SDS011;59840;52.122;5.404;2023-01-24T15:47:30;13.75;;;7.47;;
71973;SDS011;59840;52.122;5.404;2023-01-24T15:50:21;15.45;;;7.07;;
71973;SDS011;59840;52.122;5.404;2023-01-24T15:53:21;16.58;;;8.25;;
71973;SDS011;59840;52.122;5.404;2023-01-24T15:55:54;14.43;;;7.00;;
71973;SDS011;59840;52.122;5.404;2023-01-24T15:58:29;12.82;;;7.65;;
71973;SDS011;59840;52.122;5.404;2023-01-24T16:00:58;15.00;;;7.50;;
71973;SDS011;59840;52.122;5.404;2023-01-24T16:03:26;16.55;;;8.32;;
71973;SDS011;59840;52.122;5.404;2023-01-24T16:05:52;11.98;;;7.32;;
71973;SDS011;59840;52.122;5.404;2023-01-24T16:08:19;13.77;;;7.70;;
71973;SDS011;59840;52.122;5.404;2023-01-24T16:10:45;12.32;;;6.70;;
71973;SDS011;59840;52.122;5.404;2023-01-24T16:15:46;11.85;;;7.22;;
71973;SDS011;59840;52.122;5.404;2023-01-24T16:18:12;12.50;;;7.78;;
71973;SDS011;59840;52.122;5.404;2023-01-24T16:20:39;15.70;;;8.17;;
71973;SDS011;59840;52.122;5.404;2023-01-24T16:23:05;13.93;;;7.63;;
71973;SDS011;59840;52.122;5.404;2023-01-24T16:25:32;15.27;;;7.70;;
71973;SDS011;59840;52.122;5.404;2023-01-24T16:28:00;15.55;;;7.63;;
71973;SDS011;59840;52.122;5.404;2023-01-24T16:30:29;14.70;;;7.53;;
71973;SDS011;59840;52.122;5.404;2023-01-24T16:32:55;14.97;;;8.30;;
71973;SDS011;59840;52.122;5.404;2023-01-24T16:35:23;13.20;;;7.35;;
71973;SDS011;59840;52.122;5.404;2023-01-24T16:37:49;14.88;;;8.38;;
71973;SDS011;59840;52.122;5.404;2023-01-24T16:40:16;13.30;;;7.18;;
71973;SDS011;59840;52.122;5.404;2023-01-24T16:42:44;14.98;;;7.50;;
71973;SDS011;59840;52.122;5.404;2023-01-24T16:45:16;17.80;;;8.27;;
71973;SDS011;59840;52.122;5.404;2023-01-24T16:47:44;26.48;;;9.40;;
71973;SDS011;59840;52.122;5.404;2023-01-24T16:50:11;25.45;;;9.10;;
71973;SDS011;59840;52.122;5.404;2023-01-24T16:52:39;19.15;;;8.35;;
71973;SDS011;59840;52.122;5.404;2023-01-24T16:55:06;13.45;;;7.43;;
71973;SDS011;59840;52.122;5.404;2023-01-24T16:57:33;11.97;;;7.60;;
71973;SDS011;59840;52.122;5.404;2023-01-24T17:00:00;14.13;;;7.80;;
71973;SDS011;59840;52.122;5.404;2023-01-24T17:02:27;13.20;;;7.70;;
71973;SDS011;59840;52.122;5.404;2023-01-24T17:04:54;16.33;;;8.23;;
71973;SDS011;59840;52.122;5.404;2023-01-24T17:07:20;10.38;;;7.13;;
71973;SDS011;59840;52.122;5.404;2023-01-24T17:09:47;10.70;;;6.63;;
71973;SDS011;59840;52.122;5.404;2023-01-24T17:12:13;15.15;;;7.55;;
71973;SDS011;59840;52.122;5.404;2023-01-24T17:14:40;14.38;;;8.85;;
71973;SDS011;59840;52.122;5.404;2023-01-24T17:17:09;12.15;;;7.00;;